Anzali, Iran

7:23 AM IRST on December 22, 2014 (GMT +0330)
Rasht | Change Station
CLOSE
Current Station
Airport
Location: Rasht,
Elevation: -30 ft
Nearby Weather Stations

Elev -30 ft 37.33 °N, 49.61 °E | Updated 23 minutes ago

Fog
Fog
43 °F
Feels Like 43 °F
N
0
Wind Variable Wind from North

Today
High -- | Low -- °F
--% Chance of Precip.
Yesterday
High -- | Low -- °F
Precip. -- in
7:23 AM 4:57 PM
New Moon, 0% visible
Pressure 29.95 in
Visibility 0.1 miles
Clouds
Dew Point 43 °F
Humidity 100%
Rainfall 0.00 in
Snow Depth Not available.
UV Not available.
Pollen Not available.
Air Quality Not available.
Flu Activity Not available.
METAR OIGG 220330Z 00000KT 0100 FG VV001 06/06 Q1014

More Conditions Fewer Conditions

Pressure 29.95 in
Visibility 0.1 miles
Clouds
Dew Point 43 °F
Humidity 100%
Rainfall 0.00 in
Snow Depth Not available.
UV Not available.
Pollen Not available.
Air Quality Not available.
Flu Activity Not available.
METAR OIGG 220330Z 00000KT 0100 FG VV001 06/06 Q1014

More Conditions Fewer Conditions

10-Day Weather Forecast

Almanac

Astronomy

Dec. 22, 2014 Rise Set
Actual Time
Civil Twilight
Nautical Twilight
Astronomical Twilight
Moon
Length of Visible Light
Length of Day
Tomorrow will be .
, % of the Moon is Illuminated

Today's Extremes

Country Highs Country Lows

Community

WunderPhotos

Upload Photos

1,779,531 photos uploaded!

WunderBlogs® & News

Nearby

Air Quality

  Air Quality AQ Index Pollutant
Not available.

Snow Depth

Station Depth Elevation

Earthquake Activity

City Distance Mag. Time & Date
Minimum magnitude displayed is 2.5.

Coastal Water Temperatures

Place Temperature

Nearby Weather Stations